Portada
METAR-TAF:

METAR-TAF

Aeroports :

Kimmirut, Nunavut, Canadà

latitud: 62-51N, longitud: 069-53W, altitud: 53 m

Observació

L'informe es va fer fa 16 hores i 42 minuts, a les 20:00 UTC
Vent 4 kt del Est/Nord-Est
Temperatura -29°C
Humitat 62%
Pressió 1005 hPa
Visibilitat: 24.1 km
Escasses núvols a una alçada de 5000 ft
Escasses núvols a una alçada de 12000 ft

METAR: CYLC 172000Z 07004KT 15SM FEW050 FEW120 M29/M34 A2967 RMK SC1AS1 SC TR S0 AFT12Z LASTSTFD OBS/NXT 181300Z SLP056

Hora: 07:42 (12:42 UTC)


TAF: manca

Observacions i pronòstics meteorològics de més de 4000 aeroports (METAR i TAF).

Les estacions disponibles són els punts grocs i vermells al mapa.

Posi el ratolí al punt desitjat per veure el nom de l'estació.

Feu clic per veure les observacions i els pronòstics meteorològics.

Per canviar el mapa: feu clic els botons verds amb una creu de color negre per apropar; al botó verd amb un guió per allunyar la imatge; o en les fletxes verdes per a mapes adjacents.


METAR-TAF: